createdAt,value
2019-05-18T00:01:18.489Z,12.59
2019-05-18T00:03:47.136Z,12.72
2019-05-18T00:06:15.767Z,12.86
2019-05-18T00:08:44.423Z,12.96
2019-05-18T00:11:13.062Z,12.98
2019-05-18T00:13:41.706Z,13.06
2019-05-18T00:16:10.643Z,13.09
2019-05-18T00:18:39.283Z,13.06
2019-05-18T00:21:08.026Z,13.03
2019-05-18T00:23:36.723Z,12.96
2019-05-18T00:26:05.366Z,12.91
2019-05-18T00:28:34.017Z,12.94
2019-05-18T00:31:02.644Z,12.97
2019-05-18T00:33:31.315Z,13.01
2019-05-18T00:35:59.925Z,12.96
2019-05-18T00:38:28.574Z,12.88
2019-05-18T00:40:57.223Z,12.90
2019-05-18T00:43:25.998Z,12.94
2019-05-18T00:45:54.642Z,12.93
2019-05-18T00:48:23.287Z,12.87
2019-05-18T00:50:51.947Z,12.86
2019-05-18T00:53:20.575Z,12.85
2019-05-18T00:55:49.169Z,12.74
2019-05-18T00:58:17.792Z,12.62
2019-05-18T01:00:46.432Z,12.56
2019-05-18T01:03:15.076Z,12.46
2019-05-18T01:05:43.671Z,12.43
2019-05-18T01:08:12.311Z,12.36
2019-05-18T01:10:40.947Z,12.26
2019-05-18T01:13:09.591Z,12.18
2019-05-18T01:15:38.236Z,12.06
2019-05-18T01:18:06.868Z,11.92
2019-05-18T01:20:35.519Z,11.83
2019-05-18T01:23:04.270Z,11.76
2019-05-18T01:25:32.948Z,11.63
2019-05-18T01:28:01.601Z,11.63
2019-05-18T01:30:30.232Z,11.60
2019-05-18T01:32:58.809Z,11.49
2019-05-18T01:35:27.459Z,11.49
2019-05-18T01:37:56.197Z,11.49
2019-05-18T01:40:24.857Z,11.45
2019-05-18T01:42:53.488Z,11.40
2019-05-18T01:45:22.120Z,11.25
2019-05-18T01:47:50.787Z,11.24
2019-05-18T01:50:19.701Z,11.21
2019-05-18T01:52:48.344Z,11.08
2019-05-18T01:55:16.982Z,11.11
2019-05-18T01:57:45.642Z,11.04
2019-05-18T02:00:15.082Z,11.00
2019-05-18T02:02:43.724Z,10.98
2019-05-18T02:05:12.657Z,10.97
2019-05-18T02:07:41.341Z,10.91
2019-05-18T02:10:10.418Z,10.96
2019-05-18T02:12:39.047Z,10.86
2019-05-18T02:15:08.591Z,10.80
2019-05-18T02:17:37.240Z,10.80
2019-05-18T02:20:05.995Z,10.81
2019-05-18T02:22:34.633Z,10.79
2019-05-18T02:25:05.193Z,10.72
2019-05-18T02:27:33.821Z,10.75
2019-05-18T02:30:02.501Z,10.69
2019-05-18T02:32:31.062Z,10.63
2019-05-18T02:35:00.053Z,10.62
2019-05-18T02:37:28.708Z,10.62
2019-05-18T02:39:57.341Z,10.60
2019-05-18T02:42:30.302Z,10.56
2019-05-18T02:44:56.343Z,10.50
2019-05-18T02:47:24.901Z,10.47
2019-05-18T02:49:53.547Z,10.50
2019-05-18T02:52:22.171Z,10.52
2019-05-18T02:54:50.826Z,10.54
2019-05-18T02:57:19.473Z,10.57
2019-05-18T02:59:48.107Z,10.53
2019-05-18T03:02:16.818Z,10.57
2019-05-18T03:04:45.468Z,10.31
2019-05-18T03:07:14.144Z,10.49
2019-05-18T03:09:42.887Z,10.60
2019-05-18T03:12:11.529Z,10.64
2019-05-18T03:14:40.181Z,10.72
2019-05-18T03:17:08.822Z,10.82
2019-05-18T03:19:37.460Z,10.82
2019-05-18T03:22:06.301Z,10.71
2019-05-18T03:24:34.879Z,10.63
2019-05-18T03:27:03.542Z,10.65
2019-05-18T03:29:32.252Z,10.66
2019-05-18T03:32:00.972Z,10.68
2019-05-18T03:34:29.535Z,10.77
2019-05-18T03:36:58.258Z,10.89
2019-05-18T03:39:26.898Z,10.93
2019-05-18T03:41:55.626Z,11.05
2019-05-18T03:44:24.261Z,11.11
2019-05-18T03:46:52.903Z,11.16
2019-05-18T03:49:27.031Z,11.29
2019-05-18T03:51:51.949Z,11.34
2019-05-18T03:54:20.588Z,11.37
2019-05-18T03:56:49.222Z,11.32
2019-05-18T03:59:17.843Z,11.36
2019-05-18T04:01:46.490Z,11.41
2019-05-18T04:04:18.417Z,11.56
2019-05-18T04:06:45.363Z,11.60
2019-05-18T04:09:13.945Z,11.69
2019-05-18T04:11:42.582Z,11.81
2019-05-18T04:14:11.232Z,11.96
2019-05-18T04:16:39.890Z,12.02
2019-05-18T04:19:08.536Z,12.16
2019-05-18T04:21:37.180Z,12.21
2019-05-18T04:24:05.817Z,12.31
2019-05-18T04:26:34.463Z,12.43
2019-05-18T04:29:03.128Z,12.58
2019-05-18T04:31:32.543Z,12.54
2019-05-18T04:34:01.468Z,12.56
2019-05-18T04:36:30.229Z,12.47
2019-05-18T04:38:58.879Z,12.42
2019-05-18T04:41:27.517Z,12.47
2019-05-18T04:43:56.156Z,12.42
2019-05-18T04:46:24.800Z,12.46
2019-05-18T04:48:53.432Z,12.41
2019-05-18T04:51:22.076Z,12.48
2019-05-18T04:53:50.814Z,12.61
2019-05-18T04:56:19.462Z,12.69
2019-05-18T04:58:48.110Z,12.83
2019-05-18T05:01:16.761Z,13.03
2019-05-18T05:03:45.329Z,13.34
2019-05-18T05:06:14.011Z,13.65
2019-05-18T05:08:42.666Z,13.91
2019-05-18T05:11:11.304Z,14.24
2019-05-18T05:13:39.908Z,14.60
2019-05-18T05:16:08.667Z,14.87
2019-05-18T05:18:37.443Z,15.19
2019-05-18T05:21:07.500Z,15.56
2019-05-18T05:23:36.222Z,15.77
2019-05-18T05:26:05.100Z,15.85
2019-05-18T05:28:33.653Z,15.98
2019-05-18T05:31:02.310Z,16.02
2019-05-18T05:33:30.961Z,16.02
2019-05-18T05:35:59.591Z,16.04
2019-05-18T05:38:28.163Z,16.09
2019-05-18T05:40:56.815Z,16.23
2019-05-18T05:43:25.387Z,16.35
2019-05-18T05:45:54.033Z,16.63
2019-05-18T05:48:22.835Z,16.82
2019-05-18T05:50:51.483Z,16.89
2019-05-18T05:53:20.200Z,17.18
2019-05-18T05:55:48.837Z,17.54
2019-05-18T05:58:17.502Z,17.96
2019-05-18T06:00:46.140Z,18.26
2019-05-18T06:03:14.776Z,18.38
2019-05-18T06:05:43.363Z,18.69
2019-05-18T06:08:11.985Z,19.07
2019-05-18T06:10:40.638Z,19.08
2019-05-18T06:13:09.329Z,19.00
2019-05-18T06:15:37.949Z,19.11
2019-05-18T06:18:06.593Z,19.16
2019-05-18T06:20:48.991Z,19.42
2019-05-18T06:23:05.677Z,19.78
2019-05-18T06:25:34.650Z,20.08
2019-05-18T06:28:03.367Z,20.39
2019-05-18T06:30:31.939Z,20.81
2019-05-18T06:33:00.508Z,20.25
2019-05-18T06:35:29.232Z,21.12
2019-05-18T06:37:57.943Z,21.65
2019-05-18T06:40:26.582Z,21.81
2019-05-18T06:42:55.151Z,21.96
2019-05-18T06:45:23.878Z,21.85
2019-05-18T06:47:52.537Z,21.55
2019-05-18T06:50:29.459Z,21.36
2019-05-18T06:52:58.181Z,21.49
2019-05-18T06:55:27.425Z,21.74
2019-05-18T06:57:58.156Z,22.35
2019-05-18T07:00:27.399Z,22.66
2019-05-18T07:02:56.115Z,22.92
2019-05-18T07:05:24.749Z,23.00
2019-05-18T07:07:53.327Z,23.00
2019-05-18T07:10:21.975Z,23.25
2019-05-18T07:12:50.626Z,23.35
2019-05-18T07:15:19.481Z,23.44
2019-05-18T07:17:48.125Z,23.28
2019-05-18T07:20:17.101Z,23.66
2019-05-18T07:22:45.742Z,24.40
2019-05-18T07:25:14.567Z,24.92
2019-05-18T07:27:43.145Z,25.78
2019-05-18T07:30:13.736Z,27.50
2019-05-18T07:32:42.367Z,28.83
2019-05-18T07:35:11.408Z,27.59
2019-05-18T07:37:40.068Z,29.00
2019-05-18T07:40:09.105Z,29.29
2019-05-18T07:42:37.696Z,29.41
2019-05-18T07:45:07.838Z,29.76
2019-05-18T07:47:36.476Z,32.11
2019-05-18T07:50:06.235Z,32.45
2019-05-18T07:52:34.866Z,33.65
2019-05-18T07:55:04.120Z,34.42
2019-05-18T07:57:32.762Z,37.03
2019-05-18T08:00:01.398Z,38.72
2019-05-18T08:02:30.037Z,38.97
2019-05-18T08:04:58.674Z,39.10
2019-05-18T08:07:27.404Z,40.11
2019-05-18T08:09:56.101Z,41.71
2019-05-18T08:12:24.613Z,44.01
2019-05-18T08:14:53.179Z,44.37
2019-05-18T08:17:21.829Z,44.02
2019-05-18T08:19:50.483Z,43.72
2019-05-18T08:22:19.146Z,44.53
2019-05-18T08:24:47.719Z,42.71
2019-05-18T08:27:16.437Z,43.70
2019-05-18T08:29:45.073Z,45.00
2019-05-18T08:32:13.721Z,44.91
2019-05-18T08:34:42.409Z,44.23
2019-05-18T08:37:11.066Z,44.23
2019-05-18T08:39:39.740Z,44.71
2019-05-18T08:42:08.399Z,45.19
2019-05-18T08:44:36.968Z,45.14
2019-05-18T08:47:05.622Z,45.54
2019-05-18T08:49:34.160Z,46.95
2019-05-18T08:52:08.502Z,48.11
2019-05-18T08:54:33.140Z,49.25
2019-05-18T08:57:01.736Z,47.91
2019-05-18T08:59:30.424Z,47.28
2019-05-18T09:01:59.238Z,49.27
2019-05-18T09:04:27.888Z,48.97
2019-05-18T09:06:56.560Z,49.64
2019-05-18T09:09:25.133Z,49.26
2019-05-18T09:11:53.767Z,49.61
2019-05-18T09:14:22.400Z,49.68
2019-05-18T09:16:50.967Z,49.55
2019-05-18T09:19:19.654Z,50.30
2019-05-18T09:21:48.458Z,49.03
2019-05-18T09:24:17.109Z,47.72
2019-05-18T09:26:45.767Z,47.46
2019-05-18T09:29:14.410Z,49.05
2019-05-18T09:31:43.057Z,51.61
2019-05-18T09:34:11.694Z,50.74
2019-05-18T09:36:40.444Z,51.79
2019-05-18T09:39:09.091Z,52.98
2019-05-18T09:41:37.730Z,53.90
2019-05-18T09:44:06.360Z,54.11
2019-05-18T09:46:34.999Z,53.47
2019-05-18T09:49:03.644Z,53.48
2019-05-18T09:51:32.294Z,53.97
2019-05-18T09:54:00.924Z,53.70
2019-05-18T09:56:29.580Z,51.59
2019-05-18T09:58:58.243Z,51.59
2019-05-18T10:01:26.891Z,51.93
2019-05-18T10:03:55.521Z,53.98
2019-05-18T10:06:24.169Z,53.73
2019-05-18T10:08:52.874Z,53.21
2019-05-18T10:11:21.497Z,52.25
2019-05-18T10:13:50.120Z,53.34
2019-05-18T10:16:18.756Z,55.19
2019-05-18T10:18:47.516Z,55.06
2019-05-18T10:21:16.154Z,55.52
2019-05-18T10:23:44.836Z,56.40
2019-05-18T10:26:13.468Z,55.41
2019-05-18T10:28:42.119Z,55.18
2019-05-18T10:31:10.775Z,55.39
2019-05-18T10:33:39.420Z,55.05
2019-05-18T10:36:08.196Z,55.00
2019-05-18T10:38:36.837Z,54.81
2019-05-18T10:41:05.587Z,55.43
2019-05-18T10:43:34.338Z,56.53
2019-05-18T10:46:02.961Z,56.18
2019-05-18T10:48:31.669Z,55.67
2019-05-18T10:51:00.376Z,54.38
2019-05-18T10:53:29.288Z,53.18
2019-05-18T10:55:57.999Z,51.13
2019-05-18T10:58:26.751Z,49.74
2019-05-18T11:00:55.404Z,47.36
2019-05-18T11:03:24.111Z,45.06
2019-05-18T11:05:52.763Z,42.57
2019-05-18T11:08:21.445Z,40.51
2019-05-18T11:10:50.073Z,38.87
2019-05-18T11:13:18.710Z,37.16
2019-05-18T11:15:47.363Z,35.65
2019-05-18T11:18:15.947Z,34.03
2019-05-18T11:20:44.624Z,33.25
2019-05-18T11:23:13.247Z,32.25
2019-05-18T11:25:42.192Z,31.44
2019-05-18T11:28:10.860Z,30.20
2019-05-18T11:30:39.555Z,29.84
2019-05-18T11:33:08.143Z,29.40
2019-05-18T11:38:02.046Z,28.46
2019-05-18T11:40:30.695Z,28.00
2019-05-18T11:42:59.420Z,27.65
2019-05-18T11:45:28.662Z,27.60
2019-05-18T11:47:57.304Z,27.56
2019-05-18T11:50:26.052Z,27.40
2019-05-18T11:52:54.701Z,27.10
2019-05-18T11:55:23.453Z,27.09
2019-05-18T11:57:52.304Z,26.95
2019-05-18T12:00:21.355Z,26.87
2019-05-18T12:02:50.004Z,26.72
2019-05-18T12:05:19.212Z,26.53
2019-05-18T12:07:47.846Z,26.58
2019-05-18T12:10:18.554Z,26.36
2019-05-18T12:12:47.451Z,26.38
2019-05-18T12:15:16.494Z,26.37
2019-05-18T12:17:45.169Z,26.33
2019-05-18T12:20:15.337Z,26.33
2019-05-18T12:22:44.005Z,26.41
2019-05-18T12:25:13.944Z,26.26
2019-05-18T12:27:42.616Z,26.31
2019-05-18T12:30:13.469Z,26.27
2019-05-18T12:32:42.119Z,26.16
2019-05-18T12:35:11.301Z,26.08
2019-05-18T12:37:39.957Z,26.17
2019-05-18T12:40:10.818Z,26.09
2019-05-18T12:42:39.450Z,25.99
2019-05-18T12:45:08.671Z,25.85
2019-05-18T12:47:37.320Z,25.77
2019-05-18T12:50:07.763Z,25.86
2019-05-18T12:52:36.602Z,25.91
2019-05-18T12:55:08.552Z,25.94
2019-05-18T12:57:37.391Z,25.70
2019-05-18T13:00:09.012Z,25.50
2019-05-18T13:02:37.659Z,25.33
2019-05-18T13:05:09.454Z,25.06
2019-05-18T13:07:38.129Z,25.13
2019-05-18T13:10:11.326Z,25.05
2019-05-18T13:12:39.966Z,24.97
2019-05-18T13:15:10.505Z,24.83
2019-05-18T13:17:39.250Z,24.78
2019-05-18T13:20:09.760Z,24.88
2019-05-18T13:22:38.435Z,24.94
2019-05-18T13:25:07.933Z,25.08
2019-05-18T13:27:39.197Z,25.22
2019-05-18T13:30:09.574Z,25.16
2019-05-18T13:32:38.202Z,25.27
2019-05-18T13:35:08.343Z,25.23
2019-05-18T13:37:36.974Z,25.34
2019-05-18T13:40:07.481Z,25.24
2019-05-18T13:42:36.139Z,25.09
2019-05-18T13:45:06.570Z,25.01
2019-05-18T13:47:35.142Z,24.71
2019-05-18T13:50:04.376Z,24.65
2019-05-18T13:52:33.017Z,24.63
2019-05-18T13:55:04.617Z,24.52
2019-05-18T13:57:32.003Z,24.64
2019-05-18T14:00:00.656Z,24.68
2019-05-18T14:02:29.376Z,24.59
2019-05-18T14:04:58.100Z,24.74
2019-05-18T14:07:26.777Z,24.70
2019-05-18T14:09:55.415Z,24.49
2019-05-18T14:12:24.146Z,24.44
2019-05-18T14:14:52.805Z,24.32
2019-05-18T14:17:21.456Z,24.31
2019-05-18T14:19:50.170Z,24.30
2019-05-18T14:22:18.738Z,24.19
2019-05-18T14:24:47.375Z,24.06
2019-05-18T14:27:15.952Z,24.15
2019-05-18T14:29:44.590Z,24.12
2019-05-18T14:32:13.176Z,24.14
2019-05-18T14:34:41.803Z,24.01
2019-05-18T14:37:10.473Z,23.96
2019-05-18T14:39:39.115Z,23.93
2019-05-18T14:42:07.747Z,23.93
2019-05-18T14:44:36.395Z,23.99
2019-05-18T14:47:05.055Z,23.95
2019-05-18T14:49:33.672Z,23.92
2019-05-18T14:52:02.415Z,23.90
2019-05-18T14:54:31.131Z,23.82
2019-05-18T14:56:59.686Z,23.79
2019-05-18T14:59:28.320Z,23.66
2019-05-18T15:01:56.969Z,23.67
2019-05-18T15:04:25.616Z,23.69
2019-05-18T15:06:54.713Z,23.72
2019-05-18T15:09:23.371Z,23.75
2019-05-18T15:11:51.957Z,23.79
2019-05-18T15:14:20.590Z,23.83
2019-05-18T15:16:49.352Z,23.86
2019-05-18T15:19:17.997Z,23.82
2019-05-18T15:21:46.663Z,23.86
2019-05-18T15:24:15.295Z,23.87
2019-05-18T15:26:43.954Z,23.87
2019-05-18T15:29:12.635Z,23.90
2019-05-18T15:31:41.279Z,23.82
2019-05-18T15:34:11.783Z,23.87
2019-05-18T15:36:41.676Z,23.88
2019-05-18T15:39:10.342Z,23.85
2019-05-18T15:41:38.989Z,23.85
2019-05-18T15:44:07.659Z,23.75
2019-05-18T15:46:36.292Z,23.80
2019-05-18T15:49:05.018Z,23.75
2019-05-18T15:51:33.815Z,23.73
2019-05-18T15:54:02.573Z,23.79
2019-05-18T15:56:31.237Z,23.78
2019-05-18T15:58:59.869Z,23.75
2019-05-18T16:01:28.502Z,23.67
2019-05-18T16:03:57.139Z,23.67
2019-05-18T16:06:25.787Z,23.52
2019-05-18T16:08:54.439Z,23.55
2019-05-18T16:11:23.157Z,23.56
2019-05-18T16:13:51.795Z,23.55
2019-05-18T16:16:20.431Z,23.54
2019-05-18T16:18:49.110Z,23.51
2019-05-18T16:21:17.735Z,23.54
2019-05-18T16:23:46.366Z,23.51
2019-05-18T16:26:21.579Z,23.46
2019-05-18T16:28:45.373Z,23.41
2019-05-18T16:31:14.032Z,23.40
2019-05-18T16:33:42.662Z,23.34
2019-05-18T16:36:11.304Z,23.32
2019-05-18T16:38:39.888Z,23.27
2019-05-18T16:41:08.586Z,23.17
2019-05-18T16:43:37.224Z,23.19
2019-05-18T16:46:05.876Z,23.15
2019-05-18T16:48:34.438Z,23.16
2019-05-18T16:51:03.175Z,23.06
2019-05-18T16:53:31.931Z,22.97
2019-05-18T16:56:00.582Z,22.90
2019-05-18T16:58:29.300Z,22.82
2019-05-18T17:00:57.938Z,22.79
2019-05-18T17:03:26.588Z,22.80
2019-05-18T17:05:55.214Z,22.76
2019-05-18T17:08:23.903Z,22.68
2019-05-18T17:10:52.549Z,22.53
2019-05-18T17:13:21.227Z,22.45
2019-05-18T17:15:49.882Z,22.38
2019-05-18T17:18:18.522Z,22.35
2019-05-18T17:20:47.255Z,22.26
2019-05-18T17:23:15.898Z,22.14
2019-05-18T17:25:44.577Z,22.11
2019-05-18T17:28:13.211Z,22.06
2019-05-18T17:30:42.808Z,21.96
2019-05-18T17:33:11.729Z,21.82
2019-05-18T17:35:40.386Z,21.76
2019-05-18T17:38:09.026Z,21.64
2019-05-18T17:40:37.658Z,21.60
2019-05-18T17:43:06.334Z,21.49
2019-05-18T17:45:34.985Z,21.45
2019-05-18T17:48:03.645Z,21.27
2019-05-18T17:50:32.279Z,21.16
2019-05-18T17:53:01.020Z,21.09
2019-05-18T17:55:29.760Z,21.01
2019-05-18T17:57:58.338Z,20.84
2019-05-18T18:00:27.033Z,20.69
2019-05-18T18:02:55.741Z,20.53
2019-05-18T18:05:24.333Z,20.37
2019-05-18T18:07:55.514Z,20.34
2019-05-18T18:10:23.269Z,20.10
2019-05-18T18:12:51.920Z,19.98
2019-05-18T18:15:20.774Z,19.85
2019-05-18T18:17:49.425Z,19.73
2019-05-18T18:20:18.267Z,19.58
2019-05-18T18:22:46.975Z,19.45
2019-05-18T18:25:15.781Z,19.42
2019-05-18T18:27:44.503Z,19.28
2019-05-18T18:30:14.462Z,19.22
2019-05-18T18:32:43.316Z,19.13
2019-05-18T18:35:11.977Z,19.15
2019-05-18T18:37:40.706Z,19.13
2019-05-18T18:40:10.020Z,19.06
2019-05-18T18:42:38.678Z,19.01
2019-05-18T18:45:08.688Z,18.97
2019-05-18T18:47:37.338Z,18.94
2019-05-18T18:50:07.576Z,18.94
2019-05-18T18:52:36.330Z,18.90
2019-05-18T18:55:06.894Z,18.87
2019-05-18T18:57:41.284Z,18.82
2019-05-18T19:00:07.271Z,18.64
2019-05-18T19:02:37.116Z,18.57
2019-05-18T19:05:07.552Z,18.54
2019-05-18T19:07:36.190Z,18.52
2019-05-18T19:10:06.738Z,18.50
2019-05-18T19:12:35.700Z,18.42
2019-05-18T19:15:07.106Z,18.39
2019-05-18T19:17:35.659Z,18.32
2019-05-18T19:20:07.565Z,18.32
2019-05-18T19:22:36.214Z,18.31
2019-05-18T19:25:05.857Z,18.28
2019-05-18T19:27:34.489Z,18.27
2019-05-18T19:30:03.939Z,18.22
2019-05-18T19:32:32.690Z,18.20
2019-05-18T19:35:01.264Z,18.11
2019-05-18T19:37:29.989Z,18.08
2019-05-18T19:39:58.622Z,18.05
2019-05-18T19:42:27.290Z,18.02
2019-05-18T19:44:55.847Z,17.95
2019-05-18T19:47:24.497Z,17.94
2019-05-18T19:49:53.137Z,17.83
2019-05-18T19:52:21.830Z,17.85
2019-05-18T19:54:50.355Z,17.85
2019-05-18T19:57:18.995Z,17.82
2019-05-18T19:59:47.656Z,17.80
2019-05-18T20:02:18.504Z,17.75
2019-05-18T20:05:05.761Z,17.74
2019-05-18T20:07:17.212Z,17.53
2019-05-18T20:09:45.970Z,17.61
2019-05-18T20:12:14.600Z,17.61
2019-05-18T20:14:43.260Z,17.60
2019-05-18T20:17:11.915Z,17.61
2019-05-18T20:19:40.556Z,17.53
2019-05-18T20:22:09.316Z,17.50
2019-05-18T20:24:37.924Z,17.45
2019-05-18T20:27:06.587Z,17.47
2019-05-18T20:29:35.278Z,17.45
2019-05-18T20:32:04.106Z,17.45
2019-05-18T20:34:32.894Z,17.45
2019-05-18T20:37:01.538Z,17.48
2019-05-18T20:39:30.181Z,17.44
2019-05-18T20:41:58.819Z,17.41
2019-05-18T20:44:27.469Z,17.41
2019-05-18T20:46:56.106Z,17.36
2019-05-18T20:49:24.973Z,17.30
2019-05-18T20:51:53.816Z,17.29
2019-05-18T20:54:22.632Z,17.28
2019-05-18T20:56:51.199Z,17.28
2019-05-18T20:59:20.012Z,17.28
2019-05-18T21:01:48.780Z,17.31
2019-05-18T21:04:17.403Z,17.36
2019-05-18T21:06:46.440Z,17.40
2019-05-18T21:09:16.289Z,17.45
2019-05-18T21:11:48.260Z,17.45
2019-05-18T21:14:20.837Z,17.47
2019-05-18T21:16:50.396Z,17.49
2019-05-18T21:19:22.048Z,17.54
2019-05-18T21:21:51.498Z,17.54
2019-05-18T21:24:22.148Z,17.52
2019-05-18T21:26:51.223Z,17.54
2019-05-18T21:29:20.791Z,17.52
2019-05-18T21:31:49.435Z,17.49
2019-05-18T21:34:19.163Z,17.46
2019-05-18T21:36:48.115Z,17.38
2019-05-18T21:39:17.051Z,17.37
2019-05-18T21:41:46.477Z,17.39
2019-05-18T21:44:15.145Z,17.43
2019-05-18T21:46:43.784Z,17.37
2019-05-18T21:49:12.469Z,17.33
2019-05-18T21:51:41.129Z,17.30
2019-05-18T21:54:09.768Z,17.29
2019-05-18T21:56:38.442Z,17.27
2019-05-18T21:59:11.836Z,17.30
2019-05-18T22:01:37.809Z,17.29
2019-05-18T22:04:06.386Z,17.31
2019-05-18T22:06:35.017Z,17.30
2019-05-18T22:09:05.732Z,17.31
2019-05-18T22:11:36.408Z,17.29
2019-05-18T22:14:05.916Z,17.30
2019-05-18T22:16:34.594Z,17.25
2019-05-18T22:19:03.315Z,17.20
2019-05-18T22:21:31.949Z,17.17
2019-05-18T22:24:02.345Z,17.21
2019-05-18T22:26:33.492Z,17.23
2019-05-18T22:29:02.224Z,17.16
2019-05-18T22:31:30.872Z,17.19
2019-05-18T22:34:00.465Z,17.14
2019-05-18T22:36:29.420Z,17.15
2019-05-18T22:38:58.062Z,17.17
2019-05-18T22:41:27.107Z,17.14
2019-05-18T22:43:55.799Z,17.13
2019-05-18T22:46:24.647Z,17.13
2019-05-18T22:48:53.651Z,17.09
2019-05-18T22:51:23.237Z,17.07
2019-05-18T22:53:53.783Z,17.07
2019-05-18T22:56:25.467Z,17.03
2019-05-18T22:58:56.187Z,16.99
2019-05-18T23:01:24.904Z,16.96
2019-05-18T23:03:53.895Z,16.94
2019-05-18T23:06:22.524Z,16.92
2019-05-18T23:08:53.254Z,16.89
2019-05-18T23:11:22.226Z,16.89
2019-05-18T23:13:51.804Z,16.91
2019-05-18T23:16:20.451Z,16.93
2019-05-18T23:18:57.013Z,16.84
2019-05-18T23:21:21.096Z,16.82
2019-05-18T23:23:50.066Z,16.79
2019-05-18T23:26:18.705Z,16.80
2019-05-18T23:28:48.084Z,16.81
2019-05-18T23:31:17.744Z,16.79
2019-05-18T23:33:47.370Z,16.77
2019-05-18T23:36:17.610Z,16.78
2019-05-18T23:38:47.677Z,16.72
2019-05-18T23:41:17.276Z,16.67
2019-05-18T23:43:46.305Z,16.73
2019-05-18T23:46:14.922Z,16.75
2019-05-18T23:48:43.482Z,16.70
2019-05-18T23:51:12.999Z,16.66
2019-05-18T23:53:41.646Z,16.67
2019-05-18T23:56:11.060Z,16.63
2019-05-18T23:58:39.734Z,16.63
